createdAt,value
2023-02-15T00:04:57.515Z,99447.06
2023-02-15T00:10:02.451Z,99451.25
2023-02-15T00:15:07.824Z,99447.06
2023-02-15T00:20:12.113Z,99452.47
2023-02-15T00:25:17.219Z,99453.66
2023-02-15T00:30:21.091Z,99458.03
2023-02-15T00:35:24.609Z,99454.72
2023-02-15T00:40:29.537Z,99454.53
2023-02-15T00:45:32.587Z,99461.25
2023-02-15T00:50:35.899Z,99448.03
2023-02-15T00:55:41.409Z,99458.69
2023-02-15T01:00:46.397Z,99467.44
2023-02-15T01:05:51.431Z,99464.69
2023-02-15T01:10:56.359Z,99470.59
2023-02-15T01:16:00.146Z,99475.28
2023-02-15T01:21:12.035Z,99471.16
2023-02-15T01:26:17.820Z,99473.38
2023-02-15T01:31:23.257Z,99468.03
2023-02-15T01:36:26.736Z,99477.34
2023-02-15T01:41:32.056Z,99478.97
2023-02-15T01:46:39.952Z,99478.84
2023-02-15T01:51:47.620Z,99489.00
2023-02-15T01:56:53.175Z,99492.72
2023-02-15T02:02:01.708Z,99492.53
2023-02-15T02:07:06.717Z,99490.88
2023-02-15T02:12:12.351Z,99491.75
2023-02-15T02:17:20.460Z,99488.44
2023-02-15T02:23:08.242Z,99497.38
2023-02-15T02:28:36.502Z,99495.63
2023-02-15T02:33:56.509Z,99503.84
2023-02-15T02:39:15.260Z,99494.22
2023-02-15T02:44:24.719Z,99509.00
2023-02-15T02:49:35.279Z,99525.06
2023-02-15T02:54:38.656Z,99508.25
2023-02-15T02:59:46.701Z,99521.88
2023-02-15T03:04:59.744Z,99512.44
2023-02-15T03:10:05.876Z,99524.28
2023-02-15T03:15:12.872Z,99523.88
2023-02-15T03:20:26.572Z,99534.69
2023-02-15T03:25:35.322Z,99523.59
2023-02-15T03:30:41.527Z,99537.69
2023-02-15T03:35:52.724Z,99529.03
2023-02-15T03:41:13.816Z,99520.31
2023-02-15T03:46:26.817Z,99535.81
2023-02-15T03:51:36.352Z,99526.88
2023-02-15T03:56:42.343Z,99543.09
2023-02-15T04:02:00.664Z,99537.50
2023-02-15T04:07:07.630Z,99517.53
2023-02-15T04:12:11.276Z,99543.75
2023-02-15T04:17:14.788Z,99527.94
2023-02-15T04:22:36.915Z,99537.13
2023-02-15T04:27:40.871Z,99536.91
2023-02-15T04:32:44.717Z,99540.19
2023-02-15T04:37:49.487Z,99539.69
2023-02-15T04:42:53.047Z,99544.56
2023-02-15T04:47:56.689Z,99534.22
2023-02-15T04:53:01.859Z,99546.06
2023-02-15T04:58:05.802Z,99553.88
2023-02-15T05:03:09.563Z,99558.44
2023-02-15T05:08:14.496Z,99546.88
2023-02-15T05:13:18.300Z,99548.56
2023-02-15T05:18:23.257Z,99553.63
2023-02-15T05:23:27.857Z,99554.47
2023-02-15T05:28:31.360Z,99563.44
2023-02-15T05:33:35.904Z,99563.03
2023-02-15T05:38:41.169Z,99566.34
2023-02-15T05:43:45.015Z,99561.84
2023-02-15T05:48:48.542Z,99564.31
2023-02-15T05:53:53.334Z,99575.16
2023-02-15T05:58:57.096Z,99578.72
2023-02-15T06:04:00.463Z,99574.91
2023-02-15T06:09:05.618Z,99575.78
2023-02-15T06:14:09.004Z,99582.22
2023-02-15T06:19:12.456Z,99579.41
2023-02-15T06:24:17.348Z,99597.19
2023-02-15T06:29:20.616Z,99597.72
2023-02-15T06:34:24.175Z,99597.97
2023-02-15T06:39:29.100Z,99602.00
2023-02-15T06:44:32.531Z,99605.19
2023-02-15T06:49:36.034Z,99612.22
2023-02-15T06:54:40.811Z,99605.25
2023-02-15T06:59:44.063Z,99614.22
2023-02-15T07:04:47.470Z,99619.53
2023-02-15T07:09:52.521Z,99619.19
2023-02-15T07:15:05.681Z,99617.78
2023-02-15T07:20:12.861Z,99572.94
2023-02-15T07:25:16.440Z,99616.25
2023-02-15T07:30:21.689Z,99594.97
2023-02-15T07:35:25.219Z,99615.53
2023-02-15T07:40:29.043Z,99605.13
2023-02-15T07:45:33.851Z,99623.88
2023-02-15T07:50:37.359Z,99629.78
2023-02-15T07:55:40.739Z,99634.91
2023-02-15T08:01:02.890Z,99635.97
2023-02-15T08:06:07.148Z,99637.94
2023-02-15T08:11:37.681Z,99642.38
2023-02-15T08:16:44.157Z,99647.84
2023-02-15T08:21:49.602Z,99653.16
2023-02-15T08:26:54.146Z,99663.28
2023-02-15T08:32:03.445Z,99678.25
2023-02-15T08:37:07.857Z,99669.72
2023-02-15T08:42:11.360Z,99685.91
2023-02-15T08:47:16.228Z,99683.72
2023-02-15T08:52:19.470Z,99679.53
2023-02-15T08:57:22.798Z,99678.31
2023-02-15T09:02:27.928Z,99680.13
2023-02-15T09:07:31.436Z,99679.09
2023-02-15T09:12:34.968Z,99680.44
2023-02-15T09:17:39.906Z,99678.34
2023-02-15T09:22:42.946Z,99677.94
2023-02-15T09:27:46.586Z,99687.47
2023-02-15T09:32:51.558Z,99693.03
2023-02-15T09:37:54.758Z,99691.59
2023-02-15T09:43:25.495Z,99702.06
2023-02-15T09:48:53.371Z,99709.09
2023-02-15T09:54:12.600Z,99715.34
2023-02-15T09:59:27.274Z,99711.09
2023-02-15T10:04:48.854Z,99701.22
2023-02-15T10:10:03.879Z,99725.59
2023-02-15T10:15:13.431Z,99724.22
2023-02-15T10:20:30.116Z,99723.72
2023-02-15T10:25:44.413Z,99732.16
2023-02-15T10:30:51.737Z,99734.44
2023-02-15T10:36:09.319Z,99735.00
2023-02-15T10:41:25.357Z,99740.56
2023-02-15T10:46:47.334Z,99749.97
2023-02-15T10:52:08.445Z,99752.41
2023-02-15T10:57:23.833Z,99758.06
2023-02-15T11:02:39.597Z,99760.94
2023-02-15T11:07:47.744Z,99754.66
2023-02-15T11:12:52.269Z,99763.72
2023-02-15T11:18:02.465Z,99770.22
2023-02-15T11:23:17.349Z,99774.03
2023-02-15T11:28:25.733Z,99767.78
2023-02-15T11:33:34.019Z,99773.06
2023-02-15T11:38:40.631Z,99785.31
2023-02-15T11:43:52.754Z,99795.91
2023-02-15T11:48:56.228Z,99798.88
2023-02-15T11:54:01.543Z,99799.97
2023-02-15T11:59:11.723Z,99799.00
2023-02-15T12:04:23.001Z,99805.47
2023-02-15T12:09:35.924Z,99812.97
2023-02-15T12:14:50.117Z,99811.88
2023-02-15T12:19:55.108Z,99822.88
2023-02-15T12:25:01.989Z,99818.16
2023-02-15T12:30:19.272Z,99817.06
2023-02-15T12:35:30.409Z,99826.84
2023-02-15T12:40:37.206Z,99821.78
2023-02-15T12:45:40.996Z,99837.06
2023-02-15T12:50:45.586Z,99843.03
2023-02-15T12:55:55.644Z,99844.00
2023-02-15T13:01:14.171Z,99847.66
2023-02-15T13:06:20.271Z,99849.63
2023-02-15T13:11:31.204Z,99858.81
2023-02-15T13:16:38.054Z,99868.19
2023-02-15T13:21:46.117Z,99866.41
2023-02-15T13:26:51.668Z,99882.72
2023-02-15T13:31:57.032Z,99878.94
2023-02-15T13:37:07.832Z,99881.19
2023-02-15T13:42:23.605Z,99892.44
2023-02-15T13:47:32.672Z,99893.97
2023-02-15T13:52:44.366Z,99894.94
2023-02-15T13:58:11.523Z,99893.66
2023-02-15T14:03:42.349Z,99911.78
2023-02-15T14:09:01.499Z,99915.06
2023-02-15T14:14:46.360Z,99921.19
2023-02-15T14:19:55.214Z,99922.78
2023-02-15T14:25:09.677Z,99917.34
2023-02-15T14:30:22.806Z,99927.59
2023-02-15T14:35:30.008Z,99943.06
2023-02-15T14:40:59.253Z,99935.66
2023-02-15T14:46:13.066Z,99940.19
2023-02-15T14:51:50.506Z,99948.59
2023-02-15T14:57:25.009Z,99951.38
2023-02-15T15:02:41.917Z,99955.59
2023-02-15T15:07:48.324Z,99966.94
2023-02-15T15:12:53.824Z,99945.88
2023-02-15T15:18:01.003Z,99970.59
2023-02-15T15:23:41.276Z,99975.28
2023-02-15T15:28:59.523Z,99980.00
2023-02-15T15:34:46.481Z,99968.09
2023-02-15T15:40:24.292Z,99976.50
2023-02-15T15:46:08.180Z,99979.28
2023-02-15T15:51:20.185Z,99979.38
2023-02-15T15:56:29.236Z,99988.91
2023-02-15T16:01:37.315Z,99971.56
2023-02-15T16:06:43.313Z,100003.81
2023-02-15T16:11:49.372Z,100006.75
2023-02-15T16:16:56.370Z,100018.41
2023-02-15T16:22:03.950Z,100018.56
2023-02-15T16:27:35.625Z,100012.16
2023-02-15T16:32:39.090Z,100021.06
2023-02-15T16:37:44.012Z,100008.72
2023-02-15T16:42:47.503Z,100034.47
2023-02-15T16:47:55.358Z,100027.59
2023-02-15T16:53:01.348Z,100031.13
2023-02-15T16:58:07.093Z,100027.94
2023-02-15T17:03:24.270Z,100025.75
2023-02-15T17:08:31.589Z,100030.78
2023-02-15T17:13:35.060Z,100028.56
2023-02-15T17:18:46.115Z,100025.34
2023-02-15T17:23:52.540Z,100017.44
2023-02-15T17:28:58.435Z,100033.28
2023-02-15T17:34:03.028Z,100031.97
2023-02-15T17:39:21.123Z,100041.72
2023-02-15T17:44:24.451Z,100046.66
2023-02-15T17:49:29.526Z,100048.31
2023-02-15T17:54:51.486Z,100045.97
2023-02-15T18:00:12.539Z,100044.56
2023-02-15T18:05:34.278Z,100039.91
2023-02-15T18:10:56.443Z,100049.41
2023-02-15T18:16:00.070Z,100046.97
2023-02-15T18:21:03.959Z,100037.66
2023-02-15T18:26:12.229Z,100044.78
2023-02-15T18:31:16.461Z,100046.97
2023-02-15T18:36:24.009Z,100039.84
2023-02-15T18:41:28.889Z,100046.69
2023-02-15T18:46:32.380Z,100046.69
2023-02-15T18:51:40.300Z,100041.00
2023-02-15T18:56:45.274Z,100043.78
2023-02-15T19:07:17.876Z,100054.06
2023-02-15T19:12:22.766Z,100051.63
2023-02-15T19:17:26.544Z,100048.72
2023-02-15T19:22:32.996Z,100049.94
2023-02-15T19:27:38.156Z,100047.13
2023-02-15T19:32:41.556Z,100049.84
2023-02-15T19:37:47.956Z,100053.91
2023-02-15T19:42:53.570Z,100046.25
2023-02-15T19:47:57.230Z,100052.31
2023-02-15T19:53:00.863Z,100050.88
2023-02-15T19:58:05.929Z,100040.34
2023-02-15T20:03:09.422Z,100010.59
2023-02-15T20:08:18.643Z,100046.94
2023-02-15T20:13:23.510Z,100032.81
2023-02-15T20:18:26.692Z,100045.47
2023-02-15T20:23:32.701Z,100037.72
2023-02-15T20:28:37.612Z,100043.09
2023-02-15T20:33:41.114Z,100040.28
2023-02-15T20:38:45.387Z,100034.03
2023-02-15T20:43:50.346Z,100037.28
2023-02-15T20:48:53.721Z,100041.78
2023-02-15T20:53:57.218Z,100031.34
2023-02-15T20:59:02.011Z,100041.28
2023-02-15T21:04:08.539Z,100035.88
2023-02-15T21:09:14.739Z,100039.41
2023-02-15T21:14:21.588Z,100045.56
2023-02-15T21:19:26.438Z,100046.00
2023-02-15T21:24:30.332Z,100037.31
2023-02-15T21:29:36.020Z,100037.38
2023-02-15T21:34:40.114Z,100037.13
2023-02-15T21:39:43.513Z,100040.53
2023-02-15T21:45:14.445Z,100039.50
2023-02-15T21:50:36.412Z,100035.69
2023-02-15T21:55:40.024Z,100040.09
2023-02-15T22:00:45.077Z,100038.34
2023-02-15T22:05:48.459Z,100041.97
2023-02-15T22:10:52.047Z,100035.09
2023-02-15T22:15:57.466Z,100031.56
2023-02-15T22:21:01.203Z,100032.34
2023-02-15T22:26:08.095Z,100019.53
2023-02-15T22:31:16.121Z,100031.91
2023-02-15T22:36:25.326Z,100030.78
2023-02-15T22:41:31.581Z,100027.00
2023-02-15T22:46:38.444Z,100030.69
2023-02-15T22:51:42.845Z,100018.75
2023-02-15T22:56:48.934Z,100025.06
2023-02-15T23:01:54.490Z,100036.69
2023-02-15T23:07:00.766Z,100031.59
2023-02-15T23:12:04.335Z,100022.78
2023-02-15T23:17:10.326Z,100030.59
2023-02-15T23:22:16.091Z,100030.19
2023-02-15T23:27:37.726Z,100032.47
2023-02-15T23:32:42.684Z,100026.31
2023-02-15T23:37:46.317Z,100030.97
2023-02-15T23:42:49.757Z,100022.63
2023-02-15T23:48:12.089Z,100019.56
2023-02-15T23:53:15.594Z,100012.06
2023-02-15T23:58:21.626Z,100011.22
